Map

Track Data

SID SEASON NUMBER BASIN SUBBASIN NAME ISO_TIME NATURE LAT LON WMO_WIND WMO_PRES WMO_AGENCY TRACK_TYPE DIST2LAND LANDFALL IFLAG USA_AGENCY USA_ATCF_ID USA_LAT USA_LON USA_RECORD USA_STATUS USA_WIND USA_PRES USA_SSHS USA_R34_NE USA_R34_SE USA_R34_SW USA_R34_NW USA_R50_NE USA_R50_SE USA_R50_SW USA_R50_NW USA_R64_NE USA_R64_SE USA_R64_SW USA_R64_NW USA_POCI USA_ROCI USA_RMW USA_EYE TOKYO_LAT TOKYO_LON TOKYO_GRADE TOKYO_WIND TOKYO_PRES TOKYO_R50_DIR TOKYO_R50_LONG TOKYO_R50_SHORT TOKYO_R30_DIR TOKYO_R30_LONG TOKYO_R30_SHORT TOKYO_LAND CMA_LAT CMA_LON CMA_CAT CMA_WIND CMA_PRES HKO_LAT HKO_LON HKO_CAT HKO_WIND HKO_PRES NEWDELHI_LAT NEWDELHI_LON NEWDELHI_GRADE NEWDELHI_WIND NEWDELHI_PRES NEWDELHI_CI NEWDELHI_DP NEWDELHI_POCI REUNION_LAT REUNION_LON REUNION_TYPE REUNION_WIND REUNION_PRES REUNION_TNUM REUNION_CI REUNION_RMW REUNION_R34_NE REUNION_R34_SE REUNION_R34_SW REUNION_R34_NW REUNION_R50_NE REUNION_R50_SE REUNION_R50_SW REUNION_R50_NW REUNION_R64_NE REUNION_R64_SE REUNION_R64_SW REUNION_R64_NW BOM_LAT BOM_LON BOM_TYPE BOM_WIND BOM_PRES BOM_TNUM BOM_CI BOM_RMW BOM_R34_NE BOM_R34_SE BOM_R34_SW BOM_R34_NW BOM_R50_NE BOM_R50_SE BOM_R50_SW BOM_R50_NW BOM_R64_NE BOM_R64_SE BOM_R64_SW BOM_R64_NW BOM_ROCI BOM_POCI BOM_EYE BOM_POS_METHOD BOM_PRES_METHOD NADI_LAT NADI_LON NADI_CAT NADI_WIND NADI_PRES WELLINGTON_LAT WELLINGTON_LON WELLINGTON_WIND WELLINGTON_PRES DS824_LAT DS824_LON DS824_STAGE DS824_WIND DS824_PRES TD9636_LAT TD9636_LON TD9636_STAGE TD9636_WIND TD9636_PRES TD9635_LAT TD9635_LON TD9635_WIND TD9635_PRES TD9635_ROCI NEUMANN_LAT NEUMANN_LON NEUMANN_CLASS NEUMANN_WIND NEUMANN_PRES MLC_LAT MLC_LON MLC_CLASS MLC_WIND MLC_PRES USA_GUST BOM_GUST BOM_GUST_PER REUNION_GUST REUNION_GUST_PER USA_SEAHGT USA_SEARAD_NE USA_SEARAD_SE USA_SEARAD_SW USA_SEARAD_NW STORM_SPEED STORM_DIR
2019070S12104 2019 14 SI WA SAVANNAH 2019-03-11 06:00:00 NR -11.6000 103.800 main 550 537 O_____________ jtwc_sh SH192019 -11.6000 103.800 DB 20 1007 -3 1010 155 30 11 313
2019070S12104 2019 14 SI WA SAVANNAH 2019-03-11 09:00:00 NR -11.2326 103.400 main 531 519 P_____________ SH192019 -11.2326 103.400 DB 20 1007 -3 1010 155 30 11 312
2019070S12104 2019 14 SI WA SAVANNAH 2019-03-11 12:00:00 NR -10.9000 103.000 main 519 510 O_____________ jtwc_sh SH192019 -10.9000 103.000 DB 20 1007 -3 1010 155 30 10 308
2019070S12104 2019 14 SI WA SAVANNAH 2019-03-11 15:00:00 NR -10.6149 102.600 main 512 507 P_____________ SH192019 -10.6149 102.600 DB 20 1007 -3 1010 150 30 10 307
2019070S12104 2019 14 SI WA SAVANNAH 2019-03-11 18:00:00 NR -10.3000 102.200 main 512 502 O_____________ jtwc_sh SH192019 -10.3000 102.200 DB 20 1007 -3 1010 145 30 11 314
2019070S12104 2019 14 SI WA SAVANNAH 2019-03-11 21:00:00 NR -9.86492 101.808 main 510 503 P_____________ SH192019 -9.86492 101.808 DB 20 1007 -3 1010 152 30 12 319
2019070S12104 2019 14 SI WA SAVANNAH 2019-03-12 00:00:00 NR -9.40000 101.400 main 510 503 O_____________ jtwc_sh SH192019 -9.40000 101.400 DB 20 1007 -3 1010 160 30 12 318
2019070S12104 2019 14 SI WA SAVANNAH 2019-03-12 03:00:00 NR -8.94742 100.972 main 519 519 P_____________ SH192019 -8.94742 100.972 DB 20 1007 -3 1010 160 30 12 312
2019070S12104 2019 14 SI WA SAVANNAH 2019-03-12 06:00:00 NR -8.60000 100.500 main 526 524 O_____________ jtwc_sh SH192019 -8.60000 100.500 DB 20 1007 -3 1010 160 30 11 297
2019070S12104 2019 14 SI WA SAVANNAH 2019-03-12 09:00:00 NR -8.43254 99.9501 main 542 542 P_____________ SH192019 -8.43254 99.9501 DB 20 1007 -3 1010 160 30 11 280
2019070S12104 2019 14 SI WA SAVANNAH 2019-03-12 12:00:00 NR -8.40000 99.4000 main 583 583 O_____________ jtwc_sh SH192019 -8.40000 99.4000 DB 20 1007 -3 1010 160 30 10 272
2019070S12104 2019 14 SI WA SAVANNAH 2019-03-12 15:00:00 NR -8.40498 98.9051 main 620 620 P_____________ SH192019 -8.40498 98.9051 DB 22 1005 -3 1010 172 40 9 264
2019070S12104 2019 14 SI WA SAVANNAH 2019-03-12 18:00:00 TS -8.50000 98.5000 main 656 656 O_____________ jtwc_sh SH192019 -8.50000 98.5000 TD 25 1004 -1 1010 185 50 7 250
2019070S12104 2019 14 SI WA SAVANNAH 2019-03-12 21:00:00 TS -8.65492 98.2125 main 694 694 P_____________ SH192019 -8.65492 98.2125 TD 27 1002 -1 1010 185 50 6 231
2019070S12104 2019 14 SI WA SAVANNAH 2019-03-13 00:00:00 TS -8.90000 98.0000 main 726 726 O_____________ jtwc_sh SH192019 -8.90000 98.0000 TD 30 1000 -1 1010 185 50 7 216
2019070S12104 2019 14 SI WA SAVANNAH 2019-03-13 03:00:00 TS -9.21997 97.7999 main 766 766 P_____________ SH192019 -9.21997 97.7999 TD 30 1000 -1 1010 185 50 8 209
2019070S12104 2019 14 SI WA SAVANNAH 2019-03-13 06:00:00 TS -9.60000 97.6000 main 814 814 O_____________ jtwc_sh SH192019 -9.60000 97.6000 TD 30 1000 -1 1010 185 50 9 209
2019070S12104 2019 14 SI WA SAVANNAH 2019-03-13 09:00:00 TS -10.0150 97.3501 main 862 862 P_____________ SH192019 -10.0150 97.3501 TD 32 1001 -1 1009 162 35 10 211
2019070S12104 2019 14 SI WA SAVANNAH 2019-03-13 12:00:00 TS -10.4200 97.1000 main 918 918 O____O________ jtwc_sh SH192019 -10.4000 97.1000 TS 35 1003 0 105 1009 140 20 -10.5000 97.1000 2 30 9.90000 1 9 215
2019070S12104 2019 14 SI WA SAVANNAH 2019-03-13 15:00:00 TS -10.7292 96.8400 main 965 965 P____P________ SH192019 -10.6650 96.8924 TS 35 1003 0 100 1009 155 25 -10.8576 96.7352 2 32 8 220
2019070S12104 2019 14 SI WA SAVANNAH 2019-03-13 18:00:00 TS -11.0286 96.5714 main 1005 1005 O____O________ jtwc_sh SH192019 -10.9000 96.7000 TS 35 1004 0 85 55 95 1010 170 30 -11.2000 96.4000 3 35 9.90000 1 8 220
2019070S12104 2019 14 SI WA SAVANNAH 2019-03-13 21:00:00 TS -11.3537 96.3062 main 1060 1060 P____P________ SH192019 -11.1925 96.4925 TS 35 1004 0 57 40 65 1010 180 30 -11.5150 96.1199 3 37 8 217
2019070S12104 2019 14 SI WA SAVANNAH 2019-03-14 00:00:00 TS -11.6500 96.1000 main 1091 1100 O____O________ jtwc_sh SH192019 -11.5000 96.3000 TS 35 1004 0 20 30 25 35 1010 190 30 -11.8000 95.9000 3 40 9.90000 1 7 212
2019070S12104 2019 14 SI WA SAVANNAH 2019-03-14 03:00:00 TS -11.9362 95.9312 main 1131 1131 P____P________ SH192019 -11.8075 96.1425 TS 37 1004 0 32 37 30 35 1010 195 30 -12.0650 95.7200 3 40 6 208
2019070S12104 2019 14 SI WA SAVANNAH 2019-03-14 06:00:00 TS -12.2000 95.8000 main 1163 1163 O____O________ jtwc_sh SH192019 -12.1000 96.0000 TS 40 1004 0 45 45 35 35 1010 200 30 -12.3000 95.6000 3 40 9.90000 1 6 204
2019070S12104 2019 14 SI WA SAVANNAH 2019-03-14 09:00:00 TS -12.4400 95.7000 main 1187 1187 P____P________ SH192019 -12.3650 95.8500 TS 40 1003 0 45 52 40 42 1010 200 30 -12.5150 95.5499 3 40 5 203
2019070S12104 2019 14 SI WA SAVANNAH 2019-03-14 12:00:00 TS -12.6500 95.6000 main 1211 1211 O____O________ jtwc_sh SH192019 -12.6000 95.7000 TS 40 1003 0 45 60 45 50 1010 200 30 -12.7000 95.5000 3 40 9.90000 1 5 213
2019070S12104 2019 14 SI WA SAVANNAH 2019-03-14 15:00:00 TS -12.8213 95.4462 main 1242 1242 P____P________ SH192019 -12.8000 95.5425 TS 42 1002 0 42 57 45 47 1010 210 30 -12.8425 95.3500 3 40 5 220
2019070S12104 2019 14 SI WA SAVANNAH 2019-03-14 18:00:00 TS -13.0000 95.3000 main 1266 1266 O____O________ jtwc_sh SH192019 -13.0000 95.4000 TS 45 1001 0 40 55 45 45 1010 220 30 -13.0000 95.2000 3 40 9.90000 1 5 208
2019070S12104 2019 14 SI WA SAVANNAH 2019-03-14 21:00:00 TS -13.2425 95.2175 main 1290 1290 P____P________ SH192019 -13.2500 95.3000 TS 45 1000 0 47 55 47 50 1010 220 30 -13.2350 95.1350 3 45 5 197
2019070S12104 2019 14 SI WA SAVANNAH 2019-03-15 00:00:00 TS -13.5000 95.1500 main 1315 1315 O____O________ jtwc_sh SH192019 -13.5000 95.2000 TS 45 1000 0 55 55 50 55 1010 220 30 -13.5000 95.1000 3 50 9.90000 1 5 198
2019070S12104 2019 14 SI WA SAVANNAH 2019-03-15 03:00:00 TS -13.7325 95.0500 main 1339 1339 P____P________ SH192019 -13.7075 95.0425 TS 45 1000 0 52 60 57 52 1010 207 22 -13.7575 95.0575 3 55 5 203
2019070S12104 2019 14 SI WA SAVANNAH 2019-03-15 06:00:00 TS -13.9500 94.9500 main 1363 1363 O____O________ jtwc_sh SH192019 -13.9000 94.9000 TS 45 1000 0 50 65 65 50 1010 195 15 -14.0000 95.0000 3 60 9.90000 1 5 199
2019070S12104 2019 14 SI WA SAVANNAH 2019-03-15 09:00:00 TS -14.1612 94.8937 main 1396 1396 P____P________ SH192019 -14.0999 94.8649 TS 47 999 0 47 70 67 52 1010 200 15 -14.2225 94.9225 3 60 4 200
2019070S12104 2019 14 SI WA SAVANNAH 2019-03-15 12:00:00 TS -14.3500 94.8000 main 1412 1412 O____O________ jtwc_sh SH192019 -14.3000 94.8000 TS 50 998 0 45 75 70 55 20 20 20 20 1010 205 15 -14.4000 94.8000 3 60 9.90000 1 5 219
2019070S12104 2019 14 SI WA SAVANNAH 2019-03-15 15:00:00 TS -14.5150 94.6013 main 1443 1443 P____P________ SH192019 -14.5150 94.5801 TS 52 995 0 37 70 70 52 20 27 22 1009 182 15 -14.5150 94.6225 3 65 5 235
2019070S12104 2019 14 SI WA SAVANNAH 2019-03-15 18:00:00 TS -14.6500 94.3500 main 1465 1465 O____O________ jtwc_sh SH192019 -14.7000 94.3000 TS 55 993 0 30 65 70 50 20 35 25 1008 160 15 -14.6000 94.4000 4 70 9.90000 1 5 244
2019070S12104 2019 14 SI WA SAVANNAH 2019-03-15 21:00:00 TS -14.7538 94.0925 main 1503 1503 P____P________ SH192019 -14.8150 94.0350 TS 60 990 0 35 65 67 50 22 27 20 1008 165 15 -14.6925 94.1500 4 70 5 248
2019070S12104 2019 14 SI WA SAVANNAH 2019-03-16 00:00:00 TS -14.8500 93.8500 main 1517 1517 O____O________ jtwc_sh SH192019 -14.9000 93.8000 TY 65 987 1 40 65 65 50 25 25 20 15 1008 170 15 -14.8000 93.9000 4 70 9.90000 1 5 242
2019070S12104 2019 14 SI WA SAVANNAH 2019-03-16 03:00:00 TS -14.9674 93.6787 main 1548 1548 P____P________ SH192019 -14.9999 93.6499 TY 65 987 1 50 67 67 50 25 27 22 15 1008 175 17 -14.9349 93.7074 4 72 4 234
2019070S12104 2019 14 SI WA SAVANNAH 2019-03-16 06:00:00 TS -15.1000 93.5000 main 1571 1571 O____O________ jtwc_sh SH192019 -15.1000 93.5000 TY 65 987 1 60 70 70 50 25 30 25 15 1008 180 20 -15.1000 93.5000 4 75 9.90000 1 5 236
2019070S12104 2019 14 SI WA SAVANNAH 2019-03-16 09:00:00 TS -15.2463 93.2438 main 1601 1601 P____P________ SH192019 -15.1925 93.2725 TY 70 984 1 62 75 70 52 27 32 27 17 1008 172 20 -15.3000 93.2150 4 75 6 240
2019070S12104 2019 14 SI WA SAVANNAH 2019-03-16 12:00:00 TS -15.4000 92.9500 main 1632 1632 O____O________ jtwc_sh SH192019 -15.3000 93.0000 TY 75 981 1 65 80 70 55 30 35 30 20 20 15 1009 165 20 -15.5000 92.9000 4 75 9.90000 1 6 242
2019070S12104 2019 14 SI WA SAVANNAH 2019-03-16 15:00:00 TS -15.5462 92.6649 main 1662 1662 P____P________ SH192019 -15.4349 92.7224 TY 82 975 1 67 85 75 57 27 37 32 20 20 15 1009 177 12 -15.6574 92.6074 4 77 7 243
2019070S12104 2019 14 SI WA SAVANNAH 2019-03-16 18:00:00 TS -15.7000 92.3500 main 1700 1700 O____O________ jtwc_sh SH192019 -15.6000 92.4000 TY 90 970 2 70 90 80 60 25 40 35 20 10 20 15 10 1009 190 5 10 -15.8000 92.3000 4 80 9.90000 1 8 243
2019070S12104 2019 14 SI WA SAVANNAH 2019-03-16 21:00:00 TS -15.8863 91.9713 main 1745 1745 P____P________ SH192019 -15.8151 91.9927 TY 90 969 2 72 92 82 60 27 40 35 22 15 22 17 10 1008 175 5 -15.9575 91.9500 4 82 8 244
2019070S12104 2019 14 SI WA SAVANNAH 2019-03-17 00:00:00 TS -16.0500 91.6000 main 1782 1782 O____O________ jtwc_sh SH192019 -16.0000 91.6000 TY 90 969 2 75 95 85 60 30 40 35 25 20 25 20 10 1008 160 5 10 -16.1000 91.6000 4 85 9.90000 1 7 248
2019070S12104 2019 14 SI WA SAVANNAH 2019-03-17 03:00:00 TS -16.1399 91.3024 main 1811 1811 P____P________ SH192019 -16.0649 91.3273 TY 97 963 3 75 95 92 67 35 40 42 30 20 27 25 12 1008 165 5 -16.2150 91.2775 4 90 6 254
2019070S12104 2019 14 SI WA SAVANNAH 2019-03-17 06:00:00 TS -16.2000 91.0500 main 1834 1834 O____O________ jtwc_sh SH192019 -16.1000 91.1000 TY 105 957 3 75 95 100 75 40 40 50 35 20 30 30 15 1008 170 5 10 -16.3000 91.0000 4 95 9.90000 1 5 254
2019070S12104 2019 14 SI WA SAVANNAH 2019-03-17 09:00:00 TS -16.2750 90.8175 main 1860 1860 P____P________ SH192019 -16.1925 90.8500 TY 102 959 3 77 95 95 72 40 42 47 32 20 27 27 15 1008 170 5 -16.3574 90.7850 4 92 5 251
2019070S12104 2019 14 SI WA SAVANNAH 2019-03-17 12:00:00 TS -16.3500 90.6000 main 1871 1871 O____O________ jtwc_sh SH192019 -16.3000 90.6000 TY 100 961 3 80 95 90 70 40 45 45 30 20 25 25 15 1008 170 5 10 -16.4000 90.6000 4 90 958 9.90000 59 59 59 59 29 29 29 29 1 4 252
2019070S12104 2019 14 SI WA SAVANNAH 2019-03-17 15:00:00 TS -16.4099 90.3862 main 1891 1891 P____P________ SH192019 -16.3924 90.3574 TY 97 963 3 77 92 90 62 30 40 37 25 17 25 25 15 1008 172 5 -16.4274 90.4149 4 90 960 59 59 59 49 29 29 29 26 5 251
2019070S12104 2019 14 SI WA SAVANNAH 2019-03-17 18:00:00 TS -16.5000 90.1500 main 1912 1912 O____O________ jtwc_sh SH192019 -16.5000 90.1000 TY 95 966 2 75 90 90 55 20 35 30 20 15 25 25 15 1009 175 5 -16.5000 90.2000 4 90 962 5.00000 5.50000 15 59 59 59 40 29 29 29 24 1 6 244
2019070S12104 2019 14 SI MM SAVANNAH 2019-03-17 21:00:00 TS -16.6525 89.8612 main 1947 1947 P____P________ SH192019 -16.6275 89.8074 TY 87 971 2 75 92 92 57 27 37 32 25 17 22 20 15 1008 167 7 -16.6775 89.9151 4 82 964 15 59 59 59 40 29 29 29 24 7 239
2019070S12104 2019 14 SI MM SAVANNAH 2019-03-18 00:00:00 TS -16.8500 89.5500 75 966 reunion main 1974 1974 O____O________ jtwc_sh SH192019 -16.8000 89.5000 TY 80 976 1 75 95 95 60 35 40 35 30 20 20 15 15 1008 160 10 -16.9000 89.6000 4 75 966 4.50000 5.00000 15 59 59 59 40 29 29 29 24 1 7 234
2019070S12104 2019 14 SI MM SAVANNAH 2019-03-18 03:00:00 TS -17.0787 89.2538 main 2019 2019 P____P________ SH192019 -17.0499 89.2075 TY 77 979 1 80 92 92 67 37 42 37 32 20 20 17 15 1008 160 15 -17.1075 89.3000 4 67 974 17 64 69 82 29 14 44 44 12 7 232
2019070S12104 2019 14 SI MM SAVANNAH 2019-03-18 06:00:00 TS -17.3000 88.9500 60 983 reunion main 2055 2061 O____O________ jtwc_sh SH192019 -17.3000 88.9000 TY 75 983 1 85 90 90 75 40 45 40 35 20 20 20 15 1008 160 20 -17.3000 89.0000 3 60 983 4.00000 4.50000 19 70 80 105 19 0 59 59 0 1 7 237
2019070S12104 2019 14 SI MM SAVANNAH 2019-03-18 09:00:00 TS -17.4649 88.6324 main 2097 2097 P____P________ SH192019 -17.4650 88.5499 TY 67 987 1 87 95 90 72 42 50 45 32 10 10 10 7 1009 170 20 -17.4649 88.7149 3 57 985 21 70 80 105 27 0 59 59 0 7 244
2019070S12104 2019 14 SI MM SAVANNAH 2019-03-18 12:00:00 TS -17.6000 88.3000 55 987 reunion main 2124 2124 O____O________ jtwc_sh SH192019 -17.6000 88.2000 TS 60 992 0 90 100 90 70 45 55 50 30 1010 180 20 -17.6000 88.4000 3 55 987 3.50000 4.00000 24 70 80 105 35 0 59 59 0 1 7 247
2019070S12104 2019 14 SI MM SAVANNAH 2019-03-18 15:00:00 TS -17.7286 87.9761 main 2151 2151 P____P________ SH192019 -17.7572 87.9224 TS 57 993 0 82 97 87 70 32 37 35 25 1010 180 22 -17.6999 88.0298 3 50 991 21 60 77 102 35 7 249
2019070S12104 2019 14 SI MM SAVANNAH 2019-03-18 18:00:00 TS -17.8500 87.6000 45 995 reunion main 2185 2185 O____O________ jtwc_sh SH192019 -17.9000 87.6000 TS 55 995 0 75 95 85 70 20 20 20 20 1010 180 25 -17.8000 87.6000 3 45 995 2.50000 3.50000 19 51 75 99 35 1 9 253
2019070S12104 2019 14 SI MM SAVANNAH 2019-03-18 21:00:00 TS -17.9826 87.1151 main 2234 2234 P____P________ SH192019 -18.0076 87.1225 TS 52 996 0 72 100 87 67 1010 180 25 -17.9575 87.1076 3 42 997 18 43 63 87 35 10 255
2019070S12104 2019 14 SI MM SAVANNAH 2019-03-19 00:00:00 TS -18.1000 86.6000 40 1000 reunion main 2275 2275 O____O________ jtwc_sh SH192019 -18.1000 86.6000 TS 50 998 0 70 105 90 65 1010 180 25 -18.1000 86.6000 3 40 1000 2.00000 3.00000 17 35 51 75 35 1 10 258
2019070S12104 2019 14 SI MM SAVANNAH 2019-03-19 03:00:00 TS -18.1862 86.1162 main 2316 2316 P____P________ SH192019 -18.2150 86.1201 TS 47 998 0 67 105 82 62 1009 175 25 -18.1575 86.1123 3 40 1000 20 43 60 72 17 9 260
2019070S12104 2019 14 SI MM SAVANNAH 2019-03-19 06:00:00 TS -18.2500 85.7000 40 1000 reunion main 2343 2343 O____O________ jtwc_sh SH192019 -18.3000 85.7000 TS 45 999 0 65 105 75 60 1009 170 25 -18.2000 85.7000 3 40 1000 9.90000 24 51 70 70 0 1 7 262
2019070S12104 2019 14 SI MM SAVANNAH 2019-03-19 09:00:00 TS -18.2848 85.3949 main 2372 2372 P____P________ SH192019 -18.2849 85.3698 TS 42 999 0 65 105 70 62 1008 165 25 -18.2848 85.4199 3 40 1001 24 51 70 60 0 5 259
2019070S12104 2019 14 SI MM SAVANNAH 2019-03-19 12:00:00 TS -18.3500 85.1500 40 1002 reunion main 2385 2392 O____O________ jtwc_sh SH192019 -18.3000 85.1000 TS 40 1000 0 65 105 65 65 1007 160 25 -18.4000 85.2000 3 40 1002 9.90000 24 51 70 51 0 1 5 244
2019070S12104 2019 14 SI MM SAVANNAH 2019-03-19 15:00:00 TS -18.5099 84.9112 main 2423 2423 P____P________ SH192019 -18.4774 84.8501 TS 40 1000 0 65 107 67 65 1007 155 30 -18.5424 84.9724 3 40 1002 6 234
2019070S12104 2019 14 SI MM SAVANNAH 2019-03-19 18:00:00 TS -18.7000 84.6500 40 1002 reunion main 2454 2461 O____O________ jtwc_sh SH192019 -18.7000 84.6000 TS 40 1000 0 65 110 70 65 1007 150 35 -18.7000 84.7000 3 40 1002 9.90000 1 7 240
2019070S12104 2019 14 SI MM SAVANNAH 2019-03-19 21:00:00 TS -18.8652 84.2664 main 2498 2498 P____P________ SH192019 -18.8726 84.2776 TS 40 1000 0 65 110 67 62 1007 150 35 -18.8578 84.2552 3 40 1002 7 246
2019070S12104 2019 14 SI MM SAVANNAH 2019-03-20 00:00:00 TS -19.0000 83.9500 40 1002 reunion main 2528 2535 O____O________ jtwc_sh SH192019 -19.0000 84.0000 TS 40 1000 0 65 110 65 60 1008 150 35 -19.0000 83.9000 3 40 1002 9.90000 1 5 238
2019070S12104 2019 14 SI MM SAVANNAH 2019-03-20 03:00:00 TS -19.1147 83.8383 main 2550 2550 P____P________ SH192019 -19.1147 83.8317 TS 40 1001 0 65 122 67 60 1009 160 35 -19.1148 83.8449 3 40 1002 2 192
2019070S12104 2019 14 SI MM SAVANNAH 2019-03-20 06:00:00 TS -19.1500 83.9000 40 1002 reunion main 2543 2529 O____O________ jtwc_sh SH192019 -19.1000 83.8000 TS 40 1002 0 65 135 70 60 1010 170 35 -19.2000 84.0000 6 40 1002 9.90000 1 2 80
2019070S12104 2019 14 SI MM SAVANNAH 2019-03-20 09:00:00 TS -19.0713 84.0963 main 2529 2510 O____P________ jtwc_sh SH192019 -18.9000 83.9000 TS 45 999 0 65 135 85 80 1010 170 35 -19.2427 84.2925 6 40 1002 6 99
2019070S12104 2019 14 SI MM SAVANNAH 2019-03-20 12:00:00 TS -19.2500 84.5500 40 1002 reunion main 2503 2503 O____O________ jtwc_sh SH192019 -19.2000 84.5000 TS 45 996 0 65 135 85 60 1008 175 30 -19.3000 84.6000 6 40 1002 9.90000 1 7 118
2019070S12104 2019 14 SI MM SAVANNAH 2019-03-20 15:00:00 TS -19.4114 84.7648 main 2507 2507 P____P________ SH192019 -19.3804 84.7696 TS 47 995 0 72 137 85 67 1008 175 30 -19.4424 84.7600 6 40 1002 4 142
2019070S12104 2019 14 SI MM SAVANNAH 2019-03-20 18:00:00 TS -19.5500 84.8000 40 1002 reunion main 2515 2515 O____O________ jtwc_sh SH192019 -19.5000 84.8000 TS 50 994 0 80 140 85 75 1008 175 30 -19.6000 84.8000 6 40 1002 9.90000 1 3 178
2019070S12104 2019 14 SI MM SAVANNAH 2019-03-20 21:00:00 TS -19.6937 84.7701 main 2533 2533 P____P________ SH192019 -19.6649 84.8026 TS 45 997 0 80 145 87 75 1009 172 35 -19.7225 84.7376 6 40 1002 3 210
2019070S12104 2019 14 SI MM SAVANNAH 2019-03-21 00:00:00 TS -19.8000 84.6500 40 1002 reunion main 2548 2555 O____O________ jtwc_sh SH192019 -19.8000 84.7000 TS 40 1000 0 80 150 90 75 1010 170 40 -19.8000 84.6000 6 40 1002 9.90000 1 3 236
2019070S12104 2019 14 SI MM SAVANNAH 2019-03-21 03:00:00 TS -19.8511 84.5200 main 2570 2570 P____P________ SH192019 -19.8874 84.5526 TS 37 1001 0 77 142 82 67 1010 170 40 -19.8149 84.4875 6 40 1002 3 261
2019070S12104 2019 14 SI MM SAVANNAH 2019-03-21 06:00:00 TS -19.8500 84.3000 40 1002 reunion main 2575 2575 O____O________ jtwc_sh SH192019 -19.9000 84.3000 TS 35 1003 0 75 135 75 60 1010 170 40 -19.8000 84.3000 6 40 1002 9.90000 1 5 270
2019070S12104 2019 14 SI MM SAVANNAH 2019-03-21 09:00:00 TS -19.8522 83.9967 main 2603 2595 P____P________ SH192019 -19.8448 83.9677 TS 32 1004 -1 1010 167 40 -19.8597 84.0256 6 37 1003 7 278
2019070S12104 2019 14 SI MM SAVANNAH 2019-03-21 12:00:00 TS -19.7500 83.5500 35 1004 reunion main 2614 2614 O____O________ jtwc_sh SH192019 -19.7000 83.5000 TD 30 1005 -1 1010 165 40 -19.8000 83.6000 6 35 1004 9.90000 1 11 291
2019070S12104 2019 14 SI MM SAVANNAH 2019-03-21 15:00:00 TS -19.4592 82.9144 main 2623 2564 P____P________ SH192019 -19.4804 82.8572 TD 30 1005 -1 1010 165 40 -19.4379 82.9716 6 32 1005 14 297
2019070S12104 2019 14 SI MM SAVANNAH 2019-03-21 18:00:00 TS -19.1143 82.2429 30 1006 reunion main 2555 2507 O____O________ jtwc_sh SH192019 -19.2000 82.2000 TD 30 1005 -1 1010 165 40 -19.0000 82.3000 6 30 1006 9.90000 1 13 300
2019070S12104 2019 14 SI MM SAVANNAH 2019-03-21 21:00:00 TS -18.8131 81.7218 main 2507 2469 P____P________ SH192019 -18.8697 81.7049 TD 27 1007 -1 1010 165 40 -18.6999 81.7555 6 30 1006 10 301
2019070S12104 2019 14 SI MM SAVANNAH 2019-03-22 00:00:00 TS -18.5800 81.3000 30 1007 reunion main 2469 2429 O____O________ jtwc_sh SH192019 -18.6000 81.3000 TD 25 1010 -1 1010 165 40 -18.5000 81.3000 6 30 1007 9.90000 1 8 292
2019070S12104 2019 14 SI MM SAVANNAH 2019-03-22 03:00:00 TS -18.5049 80.9278 main 2429 2397 P_____________ SH192019 -18.5049 80.9278 TD 20 1010 -1 1010 165 40 6 7 277
2019070S12104 2019 14 SI MM SAVANNAH 2019-03-22 06:00:00 NR -18.5000 80.6000 main 2397 2366 O_____________ jtwc_sh SH192019 -18.5000 80.6000 DB 15 1010 -3 1010 165 40 6 270
2019070S12104 2019 14 SI MM SAVANNAH 2019-03-22 09:00:00 NR -18.5026 80.2949 main 2366 2335 P_____________ SH192019 -18.5026 80.2949 DB 15 1010 -3 1010 165 40 6 270
2019070S12104 2019 14 SI MM SAVANNAH 2019-03-22 12:00:00 NR -18.5000 80.0000 main 2335 O_____________ jtwc_sh SH192019 -18.5000 80.0000 DB 15 1010 -3 1010 165 40 6 271

About IBTrACS Database

This database is a web-friendly format of International Best Track Archive for Climate Stewardship (IBTrACS), a global best track data archive curated by NOAA dating back to 1842.

Updated: 2022-01-26